KMER/MER METAR and TAF weather

Enter ICAO airport designator
Station Type Date Time Source
KMER METAR 2019/04/20 22:45 UTC NOAA

KMER 202245Z 00000KT 10SM SCT065 23/12 A2990


Station Type Date Time Source
KMER Decoded METAR 2019/04/20 22:45 UTC NOAA

Merced / Castle Air Force Base, CA, United States (KMER) 37-22N 120-34W 60M
Apr 20, 2019 - 06:45 PM EDT / 2019.04.20 2245 UTC
Wind: Calm:0
Visibility: 10 mile(s):0
Sky conditions: partly cloudy
Temperature: 73 F (23 C)
Dew Point: 53 F (12 C)
Relative Humidity: 49%
Pressure (altimeter): 29.9 in. Hg (1012 hPa)
ob: KMER 202245Z 00000KT 10SM SCT065 23/12 A2990
cycle: 23

Station Type Date Time Source
KMER TAF 2019/04/20 18:25 UTC NOAA

TAF KMER 201720Z 2018/2118 00000KT P6SM VCSH BKN110
FM202100 31013G16KT P6SM BKN050
FM210600 33008KT P6SM FEW050 BKN100

Example: see airport list